Aérodrome :
LOGIN :

S'inscrire | Disclaimer

   EN    FR    IT 

 










Légende :    VFR   VFR Marginal   IFR   IFR Intensif   IFR Très Intensif
Visi : 
Plafond : 
>= 8 km
>= 3000ft
5 à 8 km
1000 à 3000 ft
1500m à 5 km
500 à 1000 ft
800 à 1500m
200 à 500 ft
< 800m
< 200 ft
Symboles :   Orages  Brouillard  Fortes neiges  Fortes précipitations  Vent > 20 kt
SIGMETs :   Divers  Orages  Givrage  Turbulence  Onde Orograph.  Cendres Volcan.







- Altitude de l'aérodrome : 459 ft
- Code IATA : CER
- Voir les cartes d'approche


LFRC - Cherbourg / Maupertus

DERNIER METAR :
  • 181900Z AUTO 24009KT 9999 -RA SCT006 BKN015 BKN027 08/06 Q1004

METARs EXPIRÉS :
  • 181830Z AUTO 20017KT 7000 -RA OVC006/// ///TCU 08/06 Q1004 TEMPO 3000 RA BECMG BKN030
  • 181800Z AUTO 19018KT 6000 -RA OVC006/// ///TCU 08/06 Q1003 TEMPO 16016G28KT 3000 RA BKN008
  • 181730Z AUTO 18016KT 6000 RA OVC007/// ///TCU 07/06 Q1003 TEMPO 16016G28KT 3000 RA BKN008
  • 181700Z AUTO 18017KT 6000 RA BKN008/// OVC012/// ///TCU 07/06 Q1003 TEMPO 3000 RA BKN008 BECMG 16016G28KT
  • 181630Z AUTO 18017KT 7000 RA BKN012/// OVC020/// ///TCU 07/05 Q1003 TEMPO 3000 RA BKN008 BECMG 16016G28KT

TAF AMD TAF LFRC
Valide du 18 à 16h jusqu'au 19 à 00h UTC


181641Z 1816/1824 16016G28KT 5000 RA BKN015
TEMPO 1816/1820 3000 RA BKN008
BECMG 1819/1821 22010KT 9999 BKN030
PROB30
TEMPO 1821/1824 5000 SHRA BKN030TCU
Pas de NOTAMs connus pour ce terrain.



MET'MAP, la Météo Aéronautique d'un coup d'oeil ! - Copyright ORBIFLY Décembre 2007 - Disclaimer

ORBIFLY MET'MAP TEAM :

Programmation & Développement : Alexandra Zaïnal
Conception & Développement : Baudouin d'Aumeries
Co-Programmation & Développement : Marc-Olivier Méhu
Soutien technique & logistique : Manuel Goepfert

Contact : metmap@orbifly.com




SOURCES & CREDITS :

   NOAA